sensor_id;sensor_type;location;lat;lon;timestamp;temperature;humidity
64987;DHT22;51532;52.108;9.360;2022-07-06T00:01:19;16.20;99.90
64987;DHT22;51532;52.108;9.360;2022-07-06T00:04:05;16.10;99.90
64987;DHT22;51532;52.108;9.360;2022-07-06T00:06:50;16.10;99.90
64987;DHT22;51532;52.108;9.360;2022-07-06T00:42:48;15.80;99.90
64987;DHT22;51532;52.108;9.360;2022-07-06T00:51:06;15.60;99.90
64987;DHT22;51532;52.108;9.360;2022-07-06T00:53:52;15.60;99.90
64987;DHT22;51532;52.108;9.360;2022-07-06T00:59:24;15.40;99.90
64987;DHT22;51532;52.108;9.360;2022-07-06T01:07:46;15.60;99.90
64987;DHT22;51532;52.108;9.360;2022-07-06T01:10:32;15.70;99.90
64987;DHT22;51532;52.108;9.360;2022-07-06T01:21:38;15.70;99.90
64987;DHT22;51532;52.108;9.360;2022-07-06T01:24:24;15.60;99.90
64987;DHT22;51532;52.108;9.360;2022-07-06T01:35:29;15.50;99.90
64987;DHT22;51532;52.108;9.360;2022-07-06T01:41:05;15.40;99.90
64987;DHT22;51532;52.108;9.360;2022-07-06T01:43:50;15.50;99.90
64987;DHT22;51532;52.108;9.360;2022-07-06T01:46:37;15.40;99.90
64987;DHT22;51532;52.108;9.360;2022-07-06T01:54:56;15.40;99.90
64987;DHT22;51532;52.108;9.360;2022-07-06T02:06:02;15.30;99.90
64987;DHT22;51532;52.108;9.360;2022-07-06T02:11:36;15.30;99.90
64987;DHT22;51532;52.108;9.360;2022-07-06T02:28:13;15.30;99.90
64987;DHT22;51532;52.108;9.360;2022-07-06T02:42:05;15.10;99.90
64987;DHT22;51532;52.108;9.360;2022-07-06T02:44:53;15.10;99.90
64987;DHT22;51532;52.108;9.360;2022-07-06T02:53:13;15.00;99.90
64987;DHT22;51532;52.108;9.360;2022-07-06T03:32:01;14.70;99.90
64987;DHT22;51532;52.108;9.360;2022-07-06T03:37:33;14.90;99.90
64987;DHT22;51532;52.108;9.360;2022-07-06T03:43:06;14.70;99.90
64987;DHT22;51532;52.108;9.360;2022-07-06T03:45:54;14.80;99.90
64987;DHT22;51532;52.108;9.360;2022-07-06T04:02:30;14.90;99.90
64987;DHT22;51532;52.108;9.360;2022-07-06T04:10:59;15.00;99.90
64987;DHT22;51532;52.108;9.360;2022-07-06T04:30:27;15.30;99.90
64987;DHT22;51532;52.108;9.360;2022-07-06T04:47:13;15.60;99.90
64987;DHT22;51532;52.108;9.360;2022-07-06T04:55:33;15.60;99.90
64987;DHT22;51532;52.108;9.360;2022-07-06T05:09:27;15.50;99.90
64987;DHT22;51532;52.108;9.360;2022-07-06T05:26:05;15.80;99.90
64987;DHT22;51532;52.108;9.360;2022-07-06T05:39:58;15.70;99.90
64987;DHT22;51532;52.108;9.360;2022-07-06T05:45:30;15.90;99.90
64987;DHT22;51532;52.108;9.360;2022-07-06T06:02:36;16.50;99.90
64987;DHT22;51532;52.108;9.360;2022-07-06T06:24:52;17.00;99.90
64987;DHT22;51532;52.108;9.360;2022-07-06T06:27:37;17.20;99.90
64987;DHT22;51532;52.108;9.360;2022-07-06T06:30:23;17.40;99.90
64987;DHT22;51532;52.108;9.360;2022-07-06T06:33:18;17.50;99.90
64987;DHT22;51532;52.108;9.360;2022-07-06T06:52:44;17.80;99.90
64987;DHT22;51532;52.108;9.360;2022-07-06T07:25:56;18.40;99.90
64987;DHT22;51532;52.108;9.360;2022-07-06T07:28:41;18.60;99.90
64987;DHT22;51532;52.108;9.360;2022-07-06T07:39:44;18.50;99.90
64987;DHT22;51532;52.108;9.360;2022-07-06T07:45:15;18.70;99.90
64987;DHT22;51532;52.108;9.360;2022-07-06T07:48:01;18.90;99.90
64987;DHT22;51532;52.108;9.360;2022-07-06T07:53:32;18.80;99.90
64987;DHT22;51532;52.108;9.360;2022-07-06T08:04:36;18.50;99.90
64987;DHT22;51532;52.108;9.360;2022-07-06T08:18:25;19.00;99.90
64987;DHT22;51532;52.108;9.360;2022-07-06T08:21:11;19.40;99.90
64987;DHT22;51532;52.108;9.360;2022-07-06T08:32:30;19.10;99.90
64987;DHT22;51532;52.108;9.360;2022-07-06T08:35:36;19.00;99.90
64987;DHT22;51532;52.108;9.360;2022-07-06T08:41:08;19.30;99.90
64987;DHT22;51532;52.108;9.360;2022-07-06T08:46:40;19.50;99.90
64987;DHT22;51532;52.108;9.360;2022-07-06T08:49:26;19.40;99.90
64987;DHT22;51532;52.108;9.360;2022-07-06T08:54:58;19.00;99.90
64987;DHT22;51532;52.108;9.360;2022-07-06T08:57:46;19.30;99.90
64987;DHT22;51532;52.108;9.360;2022-07-06T09:03:19;19.10;99.90
64987;DHT22;51532;52.108;9.360;2022-07-06T09:06:07;18.70;99.90
64987;DHT22;51532;52.108;9.360;2022-07-06T09:08:56;18.70;99.90
64987;DHT22;51532;52.108;9.360;2022-07-06T09:14:29;18.90;99.90
64987;DHT22;51532;52.108;9.360;2022-07-06T09:25:34;19.20;99.90
64987;DHT22;51532;52.108;9.360;2022-07-06T09:31:07;19.60;98.90
64987;DHT22;51532;52.108;9.360;2022-07-06T09:34:05;19.90;98.80
64987;DHT22;51532;52.108;9.360;2022-07-06T09:36:51;20.20;98.60
64987;DHT22;51532;52.108;9.360;2022-07-06T09:42:26;19.80;98.10
64987;DHT22;51532;52.108;9.360;2022-07-06T09:48:11;19.40;99.10
64987;DHT22;51532;52.108;9.360;2022-07-06T09:50:59;19.00;99.60
64987;DHT22;51532;52.108;9.360;2022-07-06T09:53:50;19.00;99.90
64987;DHT22;51532;52.108;9.360;2022-07-06T09:56:40;19.00;99.90
64987;DHT22;51532;52.108;9.360;2022-07-06T09:59:28;19.10;99.90
64987;DHT22;51532;52.108;9.360;2022-07-06T10:02:13;19.20;99.90
64987;DHT22;51532;52.108;9.360;2022-07-06T10:05:00;19.40;99.90
64987;DHT22;51532;52.108;9.360;2022-07-06T10:07:49;19.50;99.90
64987;DHT22;51532;52.108;9.360;2022-07-06T10:10:37;19.40;99.90
64987;DHT22;51532;52.108;9.360;2022-07-06T10:13:23;22.40;99.90
64987;DHT22;51532;52.108;9.360;2022-07-06T10:18:56;19.80;98.60
64987;DHT22;51532;52.108;9.360;2022-07-06T10:21:43;20.10;97.70
64987;DHT22;51532;52.108;9.360;2022-07-06T10:24:29;20.00;96.60
64987;DHT22;51532;52.108;9.360;2022-07-06T10:27:15;20.20;95.80
64987;DHT22;51532;52.108;9.360;2022-07-06T10:30:01;20.20;95.20
64987;DHT22;51532;52.108;9.360;2022-07-06T10:32:49;20.00;94.30
64987;DHT22;51532;52.108;9.360;2022-07-06T10:35:35;20.00;94.80
64987;DHT22;51532;52.108;9.360;2022-07-06T10:38:33;19.40;95.20
64987;DHT22;51532;52.108;9.360;2022-07-06T10:41:31;19.10;96.20
64987;DHT22;51532;52.108;9.360;2022-07-06T10:44:22;19.10;96.90
64987;DHT22;51532;52.108;9.360;2022-07-06T10:49:59;19.60;96.70
64987;DHT22;51532;52.108;9.360;2022-07-06T10:52:57;19.70;96.60
64987;DHT22;51532;52.108;9.360;2022-07-06T10:55:44;20.10;95.80
64987;DHT22;51532;52.108;9.360;2022-07-06T10:58:51;20.10;95.80
64987;DHT22;51532;52.108;9.360;2022-07-06T11:01:39;19.80;96.10
64987;DHT22;51532;52.108;9.360;2022-07-06T11:04:32;19.70;96.60
64987;DHT22;51532;52.108;9.360;2022-07-06T11:07:19;19.50;96.50
64987;DHT22;51532;52.108;9.360;2022-07-06T11:10:05;19.40;96.60
64987;DHT22;51532;52.108;9.360;2022-07-06T11:12:58;19.30;96.80
64987;DHT22;51532;52.108;9.360;2022-07-06T11:15:47;19.30;96.90
64987;DHT22;51532;52.108;9.360;2022-07-06T11:18:41;19.60;96.70
64987;DHT22;51532;52.108;9.360;2022-07-06T11:24:24;20.00;97.10
64987;DHT22;51532;52.108;9.360;2022-07-06T11:32:41;21.00;96.30
64987;DHT22;51532;52.108;9.360;2022-07-06T11:35:27;20.90;95.70
64987;DHT22;51532;52.108;9.360;2022-07-06T11:38:26;20.70;95.60
64987;DHT22;51532;52.108;9.360;2022-07-06T11:43:59;20.60;95.90
64987;DHT22;51532;52.108;9.360;2022-07-06T11:49:32;20.90;94.70
64987;DHT22;51532;52.108;9.360;2022-07-06T11:52:17;21.20;94.40
64987;DHT22;51532;52.108;9.360;2022-07-06T11:55:03;21.30;93.80
64987;DHT22;51532;52.108;9.360;2022-07-06T11:57:49;21.60;93.70
64987;DHT22;51532;52.108;9.360;2022-07-06T12:06:22;21.00;94.40
64987;DHT22;51532;52.108;9.360;2022-07-06T12:09:08;20.90;94.50
64987;DHT22;51532;52.108;9.360;2022-07-06T12:11:53;20.80;95.20
64987;DHT22;51532;52.108;9.360;2022-07-06T12:14:40;20.80;96.00
64987;DHT22;51532;52.108;9.360;2022-07-06T12:17:25;20.90;95.80
64987;DHT22;51532;52.108;9.360;2022-07-06T12:20:11;20.80;95.30
64987;DHT22;51532;52.108;9.360;2022-07-06T12:23:04;20.80;94.90
64987;DHT22;51532;52.108;9.360;2022-07-06T12:25:52;21.00;94.20
64987;DHT22;51532;52.108;9.360;2022-07-06T12:28:39;21.00;94.20
64987;DHT22;51532;52.108;9.360;2022-07-06T12:31:35;21.10;94.10
64987;DHT22;51532;52.108;9.360;2022-07-06T12:34:23;21.00;93.40
64987;DHT22;51532;52.108;9.360;2022-07-06T12:37:10;21.30;93.30
64987;DHT22;51532;52.108;9.360;2022-07-06T12:42:48;21.40;93.40
64987;DHT22;51532;52.108;9.360;2022-07-06T12:48:20;22.20;93.70
64987;DHT22;51532;52.108;9.360;2022-07-06T12:51:06;21.70;93.80
64987;DHT22;51532;52.108;9.360;2022-07-06T12:53:51;21.70;93.80
64987;DHT22;51532;52.108;9.360;2022-07-06T12:56:37;21.70;93.30
64987;DHT22;51532;52.108;9.360;2022-07-06T12:59:23;21.90;92.90
64987;DHT22;51532;52.108;9.360;2022-07-06T13:05:34;21.70;92.90
64987;DHT22;51532;52.108;9.360;2022-07-06T13:08:20;21.80;92.70
64987;DHT22;51532;52.108;9.360;2022-07-06T13:11:06;21.70;92.50
64987;DHT22;51532;52.108;9.360;2022-07-06T13:16:37;21.50;92.40
64987;DHT22;51532;52.108;9.360;2022-07-06T13:19:22;21.90;92.50
64987;DHT22;51532;52.108;9.360;2022-07-06T13:22:08;22.60;92.30
64987;DHT22;51532;52.108;9.360;2022-07-06T13:24:53;22.80;90.10
64987;DHT22;51532;52.108;9.360;2022-07-06T13:27:39;22.80;90.30
64987;DHT22;51532;52.108;9.360;2022-07-06T13:30:24;22.70;87.80
64987;DHT22;51532;52.108;9.360;2022-07-06T13:33:10;22.70;88.40
64987;DHT22;51532;52.108;9.360;2022-07-06T13:35:55;22.90;88.40
64987;DHT22;51532;52.108;9.360;2022-07-06T13:38:41;22.50;86.20
64987;DHT22;51532;52.108;9.360;2022-07-06T13:41:27;22.20;88.60
64987;DHT22;51532;52.108;9.360;2022-07-06T13:44:12;22.30;89.40
64987;DHT22;51532;52.108;9.360;2022-07-06T13:46:59;22.60;89.40
64987;DHT22;51532;52.108;9.360;2022-07-06T13:49:44;22.70;88.70
64987;DHT22;51532;52.108;9.360;2022-07-06T13:52:33;22.60;89.40
64987;DHT22;51532;52.108;9.360;2022-07-06T13:55:18;22.50;90.00
64987;DHT22;51532;52.108;9.360;2022-07-06T13:58:04;22.00;90.30
64987;DHT22;51532;52.108;9.360;2022-07-06T14:00:50;22.50;89.90
64987;DHT22;51532;52.108;9.360;2022-07-06T14:03:35;22.70;88.20
64987;DHT22;51532;52.108;9.360;2022-07-06T14:06:22;22.70;87.90
64987;DHT22;51532;52.108;9.360;2022-07-06T14:09:08;23.40;86.60
64987;DHT22;51532;52.108;9.360;2022-07-06T14:11:53;23.40;87.30
64987;DHT22;51532;52.108;9.360;2022-07-06T14:14:39;24.20;85.70
64987;DHT22;51532;52.108;9.360;2022-07-06T14:17:25;24.60;85.30
64987;DHT22;51532;52.108;9.360;2022-07-06T14:20:11;25.20;81.30
64987;DHT22;51532;52.108;9.360;2022-07-06T14:22:56;26.40;79.60
64987;DHT22;51532;52.108;9.360;2022-07-06T14:25:43;28.40;74.40
64987;DHT22;51532;52.108;9.360;2022-07-06T14:28:29;28.20;71.20
64987;DHT22;51532;52.108;9.360;2022-07-06T14:31:14;26.70;73.60
64987;DHT22;51532;52.108;9.360;2022-07-06T14:34:06;26.60;74.90
64987;DHT22;51532;52.108;9.360;2022-07-06T14:36:51;27.80;73.30
64987;DHT22;51532;52.108;9.360;2022-07-06T14:39:37;26.60;73.30
64987;DHT22;51532;52.108;9.360;2022-07-06T14:42:23;26.00;74.40
64987;DHT22;51532;52.108;9.360;2022-07-06T14:45:09;27.70;71.50
64987;DHT22;51532;52.108;9.360;2022-07-06T14:47:55;26.00;72.00
64987;DHT22;51532;52.108;9.360;2022-07-06T14:50:40;24.40;76.60
64987;DHT22;51532;52.108;9.360;2022-07-06T14:53:26;24.80;79.20
64987;DHT22;51532;52.108;9.360;2022-07-06T14:56:12;27.30;74.90
64987;DHT22;51532;52.108;9.360;2022-07-06T14:58:58;27.00;72.70
64987;DHT22;51532;52.108;9.360;2022-07-06T15:02:03;25.70;73.40
64987;DHT22;51532;52.108;9.360;2022-07-06T15:04:49;24.30;76.20
64987;DHT22;51532;52.108;9.360;2022-07-06T15:07:34;23.40;79.40
64987;DHT22;51532;52.108;9.360;2022-07-06T15:10:20;23.20;80.70
64987;DHT22;51532;52.108;9.360;2022-07-06T15:13:05;25.20;79.30
64987;DHT22;51532;52.108;9.360;2022-07-06T15:15:50;26.10;75.10
64987;DHT22;51532;52.108;9.360;2022-07-06T15:18:42;25.30;76.60
64987;DHT22;51532;52.108;9.360;2022-07-06T15:21:28;25.20;76.70
64987;DHT22;51532;52.108;9.360;2022-07-06T15:24:13;24.20;77.50
64987;DHT22;51532;52.108;9.360;2022-07-06T15:26:59;23.40;79.70
64987;DHT22;51532;52.108;9.360;2022-07-06T15:29:44;22.90;81.10
64987;DHT22;51532;52.108;9.360;2022-07-06T15:32:30;22.80;81.40
64987;DHT22;51532;52.108;9.360;2022-07-06T15:35:15;23.30;80.30
64987;DHT22;51532;52.108;9.360;2022-07-06T15:38:01;25.60;75.30
64987;DHT22;51532;52.108;9.360;2022-07-06T15:40:46;28.20;71.10
64987;DHT22;51532;52.108;9.360;2022-07-06T15:43:44;30.40;65.70
64987;DHT22;51532;52.108;9.360;2022-07-06T15:46:38;30.50;62.40
64987;DHT22;51532;52.108;9.360;2022-07-06T15:49:24;27.80;65.30
64987;DHT22;51532;52.108;9.360;2022-07-06T15:52:09;26.20;69.90
64987;DHT22;51532;52.108;9.360;2022-07-06T15:54:54;25.70;71.10
64987;DHT22;51532;52.108;9.360;2022-07-06T15:57:40;27.60;68.40
64987;DHT22;51532;52.108;9.360;2022-07-06T16:00:25;28.60;67.20
64987;DHT22;51532;52.108;9.360;2022-07-06T16:03:11;30.40;63.90
64987;DHT22;51532;52.108;9.360;2022-07-06T16:05:56;29.50;61.80
64987;DHT22;51532;52.108;9.360;2022-07-06T16:08:57;27.80;65.30
64987;DHT22;51532;52.108;9.360;2022-07-06T16:11:42;26.20;67.50
64987;DHT22;51532;52.108;9.360;2022-07-06T16:14:28;24.90;70.60
64987;DHT22;51532;52.108;9.360;2022-07-06T16:17:13;23.70;73.10
64987;DHT22;51532;52.108;9.360;2022-07-06T16:19:59;23.30;74.90
64987;DHT22;51532;52.108;9.360;2022-07-06T16:22:45;23.00;75.50
64987;DHT22;51532;52.108;9.360;2022-07-06T16:25:33;23.10;76.20
64987;DHT22;51532;52.108;9.360;2022-07-06T16:28:18;23.10;76.20
64987;DHT22;51532;52.108;9.360;2022-07-06T16:31:04;23.10;76.80
64987;DHT22;51532;52.108;9.360;2022-07-06T16:33:49;22.30;76.80
64987;DHT22;51532;52.108;9.360;2022-07-06T16:36:35;22.30;77.40
64987;DHT22;51532;52.108;9.360;2022-07-06T16:39:21;22.50;77.90
64987;DHT22;51532;52.108;9.360;2022-07-06T16:42:06;22.00;77.60
64987;DHT22;51532;52.108;9.360;2022-07-06T16:44:52;21.90;78.20
64987;DHT22;51532;52.108;9.360;2022-07-06T16:47:37;21.80;79.00
64987;DHT22;51532;52.108;9.360;2022-07-06T16:50:26;21.60;79.40
64987;DHT22;51532;52.108;9.360;2022-07-06T16:53:11;21.60;80.40
64987;DHT22;51532;52.108;9.360;2022-07-06T16:56:03;21.30;81.00
64987;DHT22;51532;52.108;9.360;2022-07-06T16:58:49;21.20;81.60
64987;DHT22;51532;52.108;9.360;2022-07-06T17:01:35;21.20;81.90
64987;DHT22;51532;52.108;9.360;2022-07-06T17:04:20;21.30;82.30
64987;DHT22;51532;52.108;9.360;2022-07-06T17:09:52;21.20;82.50
64987;DHT22;51532;52.108;9.360;2022-07-06T17:12:39;21.20;81.90
64987;DHT22;51532;52.108;9.360;2022-07-06T17:15:25;21.20;82.10
64987;DHT22;51532;52.108;9.360;2022-07-06T17:18:10;21.10;82.30
64987;DHT22;51532;52.108;9.360;2022-07-06T17:20:58;21.00;83.20
64987;DHT22;51532;52.108;9.360;2022-07-06T17:23:43;21.10;83.20
64987;DHT22;51532;52.108;9.360;2022-07-06T17:26:29;21.10;83.80
64987;DHT22;51532;52.108;9.360;2022-07-06T17:29:15;21.20;84.40
64987;DHT22;51532;52.108;9.360;2022-07-06T17:32:00;21.00;84.40
64987;DHT22;51532;52.108;9.360;2022-07-06T17:34:53;21.10;84.60
64987;DHT22;51532;52.108;9.360;2022-07-06T17:37:38;21.00;84.90
64987;DHT22;51532;52.108;9.360;2022-07-06T17:43:10;20.80;85.70
64987;DHT22;51532;52.108;9.360;2022-07-06T17:45:56;20.80;86.10
64987;DHT22;51532;52.108;9.360;2022-07-06T17:48:41;20.70;86.20
64987;DHT22;51532;52.108;9.360;2022-07-06T17:51:27;20.70;86.70
64987;DHT22;51532;52.108;9.360;2022-07-06T17:54:12;20.60;87.10
64987;DHT22;51532;52.108;9.360;2022-07-06T17:56:58;20.60;87.70
64987;DHT22;51532;52.108;9.360;2022-07-06T17:59:43;20.60;88.10
64987;DHT22;51532;52.108;9.360;2022-07-06T18:02:28;20.60;88.40
64987;DHT22;51532;52.108;9.360;2022-07-06T18:05:14;20.60;89.20
64987;DHT22;51532;52.108;9.360;2022-07-06T18:08:02;20.50;89.60
64987;DHT22;51532;52.108;9.360;2022-07-06T18:10:47;20.50;90.00
64987;DHT22;51532;52.108;9.360;2022-07-06T18:13:33;20.50;90.10
64987;DHT22;51532;52.108;9.360;2022-07-06T18:16:18;20.40;90.40
64987;DHT22;51532;52.108;9.360;2022-07-06T18:19:04;20.30;90.80
64987;DHT22;51532;52.108;9.360;2022-07-06T18:21:50;20.20;90.90
64987;DHT22;51532;52.108;9.360;2022-07-06T18:24:35;20.20;91.20
64987;DHT22;51532;52.108;9.360;2022-07-06T18:27:21;20.20;91.30
64987;DHT22;51532;52.108;9.360;2022-07-06T18:30:06;20.20;91.40
64987;DHT22;51532;52.108;9.360;2022-07-06T18:32:51;20.10;91.40
64987;DHT22;51532;52.108;9.360;2022-07-06T18:35:37;20.10;91.60
64987;DHT22;51532;52.108;9.360;2022-07-06T18:38:24;20.10;91.90
64987;DHT22;51532;52.108;9.360;2022-07-06T18:41:09;20.00;92.00
64987;DHT22;51532;52.108;9.360;2022-07-06T18:43:55;20.00;92.20
64987;DHT22;51532;52.108;9.360;2022-07-06T18:46:40;20.00;92.10
64987;DHT22;51532;52.108;9.360;2022-07-06T18:49:26;20.00;92.40
64987;DHT22;51532;52.108;9.360;2022-07-06T18:52:11;19.90;92.60
64987;DHT22;51532;52.108;9.360;2022-07-06T18:54:57;19.90;92.90
64987;DHT22;51532;52.108;9.360;2022-07-06T18:57:42;19.90;92.80
64987;DHT22;51532;52.108;9.360;2022-07-06T19:00:27;19.90;93.00
64987;DHT22;51532;52.108;9.360;2022-07-06T19:03:13;19.90;93.10
64987;DHT22;51532;52.108;9.360;2022-07-06T19:11:30;19.80;93.50
64987;DHT22;51532;52.108;9.360;2022-07-06T19:14:16;19.70;93.90
64987;DHT22;51532;52.108;9.360;2022-07-06T19:17:01;19.50;94.40
64987;DHT22;51532;52.108;9.360;2022-07-06T19:19:47;19.50;94.80
64987;DHT22;51532;52.108;9.360;2022-07-06T19:22:33;19.50;94.50
64987;DHT22;51532;52.108;9.360;2022-07-06T19:25:18;19.50;94.30
64987;DHT22;51532;52.108;9.360;2022-07-06T19:28:03;19.40;94.50
64987;DHT22;51532;52.108;9.360;2022-07-06T19:30:49;19.40;94.80
64987;DHT22;51532;52.108;9.360;2022-07-06T19:33:35;19.40;95.00
64987;DHT22;51532;52.108;9.360;2022-07-06T19:36:21;19.40;94.90
64987;DHT22;51532;52.108;9.360;2022-07-06T19:39:06;19.40;95.10
64987;DHT22;51532;52.108;9.360;2022-07-06T19:41:51;19.30;95.00
64987;DHT22;51532;52.108;9.360;2022-07-06T19:44:37;19.40;95.00
64987;DHT22;51532;52.108;9.360;2022-07-06T19:47:23;19.30;95.10
64987;DHT22;51532;52.108;9.360;2022-07-06T19:50:08;19.30;95.10
64987;DHT22;51532;52.108;9.360;2022-07-06T19:55:40;19.30;95.40
64987;DHT22;51532;52.108;9.360;2022-07-06T20:03:58;19.20;95.60
64987;DHT22;51532;52.108;9.360;2022-07-06T20:09:30;19.10;96.00
64987;DHT22;51532;52.108;9.360;2022-07-06T20:15:01;19.10;96.50
64987;DHT22;51532;52.108;9.360;2022-07-06T20:20:32;19.00;96.90
64987;DHT22;51532;52.108;9.360;2022-07-06T20:23:18;19.00;96.90
64987;DHT22;51532;52.108;9.360;2022-07-06T20:26:09;19.00;97.30
64987;DHT22;51532;52.108;9.360;2022-07-06T20:28:54;19.00;97.70
64987;DHT22;51532;52.108;9.360;2022-07-06T20:31:40;18.90;98.00
64987;DHT22;51532;52.108;9.360;2022-07-06T20:34:25;18.90;98.00
64987;DHT22;51532;52.108;9.360;2022-07-06T20:37:11;18.90;98.40
64987;DHT22;51532;52.108;9.360;2022-07-06T20:39:56;18.90;98.70
64987;DHT22;51532;52.108;9.360;2022-07-06T20:42:42;18.80;99.20
64987;DHT22;51532;52.108;9.360;2022-07-06T20:45:47;18.80;99.90
64987;DHT22;51532;52.108;9.360;2022-07-06T20:48:33;18.80;99.90
64987;DHT22;51532;52.108;9.360;2022-07-06T20:51:18;18.70;99.90
64987;DHT22;51532;52.108;9.360;2022-07-06T20:54:04;18.60;99.90
64987;DHT22;51532;52.108;9.360;2022-07-06T20:56:51;18.70;99.90
64987;DHT22;51532;52.108;9.360;2022-07-06T20:59:37;18.60;99.90
64987;DHT22;51532;52.108;9.360;2022-07-06T21:05:10;18.60;99.90
64987;DHT22;51532;52.108;9.360;2022-07-06T21:16:14;18.50;99.90
64987;DHT22;51532;52.108;9.360;2022-07-06T21:21:45;18.40;99.90
64987;DHT22;51532;52.108;9.360;2022-07-06T21:27:16;18.40;99.90
64987;DHT22;51532;52.108;9.360;2022-07-06T21:43:57;17.90;99.90
64987;DHT22;51532;52.108;9.360;2022-07-06T21:46:43;17.90;99.90
64987;DHT22;51532;52.108;9.360;2022-07-06T21:52:15;17.90;99.90
64987;DHT22;51532;52.108;9.360;2022-07-06T22:00:33;17.90;99.90
64987;DHT22;51532;52.108;9.360;2022-07-06T22:03:19;17.80;99.90
64987;DHT22;51532;52.108;9.360;2022-07-06T22:17:14;17.60;99.90
64987;DHT22;51532;52.108;9.360;2022-07-06T22:20:00;17.60;99.90
64987;DHT22;51532;52.108;9.360;2022-07-06T22:28:17;17.70;99.90
64987;DHT22;51532;52.108;9.360;2022-07-06T22:33:50;17.60;99.90
64987;DHT22;51532;52.108;9.360;2022-07-06T22:36:37;17.60;99.90
64987;DHT22;51532;52.108;9.360;2022-07-06T22:39:22;17.70;99.90
64987;DHT22;51532;52.108;9.360;2022-07-06T22:42:08;17.70;99.90
64987;DHT22;51532;52.108;9.360;2022-07-06T22:44:53;17.70;99.90
64987;DHT22;51532;52.108;9.360;2022-07-06T22:50:26;17.60;99.90
64987;DHT22;51532;52.108;9.360;2022-07-06T22:55:57;17.60;99.90
64987;DHT22;51532;52.108;9.360;2022-07-06T23:07:06;17.60;99.90
64987;DHT22;51532;52.108;9.360;2022-07-06T23:12:38;17.60;99.90
64987;DHT22;51532;52.108;9.360;2022-07-06T23:15:23;17.60;99.90
64987;DHT22;51532;52.108;9.360;2022-07-06T23:20:55;17.70;99.90
64987;DHT22;51532;52.108;9.360;2022-07-06T23:23:41;17.60;99.90
64987;DHT22;51532;52.108;9.360;2022-07-06T23:43:02;17.60;99.90
64987;DHT22;51532;52.108;9.360;2022-07-06T23:45:47;17.50;99.90
64987;DHT22;51532;52.108;9.360;2022-07-06T23:48:33;17.50;99.90
64987;DHT22;51532;52.108;9.360;2022-07-06T23:51:18;17.50;99.90
64987;DHT22;51532;52.108;9.360;2022-07-06T23:54:04;17.40;99.90
